Valkama — LE2324 — position and weather

sailwx.info

Track history (hours):
 
Tides and Currents Weather Stations Pressure Air Temp Water Temp Dewpoint Dewpoint Depression Visibility Wind Speed Wind Dir Waves Ship Positions

Valkama

Last reported at 2018-May-16 12:54 UTC. Time now 2018-May-24 08:14 UTC.
Position N 38°31' W 027°50'.

Length 11 m.

Type: Sailing vessel. MMSI: 257868280.

Date/timePositionNaut miles runAvg speedWind from/ knotsBaromVisibWave heightAir tempDewpointWater temp
2018-May-16 12:54N 38°31' W 027°50'2 5.1
2018-May-16 12:30N 38°32' W 027°52'2 4.5
2018-May-16 12:00N 38°33' W 027°55'3 5.0
2018-May-16 11:30N 38°34' W 027°58'3 5.2
2018-May-16 11:00N 38°35' W 028°01'2 4.9
2018-May-16 10:30N 38°36' W 028°04'3 5.3
2018-May-16 10:00N 38°38' W 028°06'3 5.7
2018-May-16 09:30N 38°39' W 028°10'3 5.1
2018-May-16 08:59N 38°41' W 028°12'0 0.0
2018-May-15 18:34N 38°41' W 028°12'0 0.0
2018-May-15 17:10N 38°41' W 028°12'0 0.0
2018-May-14 19:27N 38°41' W 028°12'0 0.9
2018-May-14 19:00N 38°40' W 028°12'2 4.4
2018-May-14 18:30N 38°40' W 028°15'2 4.2
2018-May-14 18:00N 38°40' W 028°18'2 4.3
2018-May-14 17:30N 38°39' W 028°20'2 4.5
2018-May-14 17:00N 38°38' W 028°23'2 4.6
2018-May-14 16:30N 38°37' W 028°25'2 4.5
2018-May-14 16:00N 38°35' W 028°27'2 4.0
2018-May-14 15:29N 38°35' W 028°30'2 4.3
2018-May-14 15:00N 38°34' W 028°32'2 4.3
2018-May-14 14:30N 38°33' W 028°34'2 4.9
2018-May-14 14:00N 38°32' W 028°37'0 0.0
2018-May-12 15:00N 38°32' W 028°38'0 0.0
2018-May-12 14:30N 38°32' W 028°38'0 0.0
2018-May-12 13:57N 38°32' W 028°38'0 0.0
2018-May-12 13:26N 38°32' W 028°38'0 0.0
2018-May-12 12:59N 38°32' W 028°38'0 0.0
2018-May-12 12:29N 38°32' W 028°38'0 0.0
2018-May-12 11:59N 38°32' W 028°38'0 0.0
2018-May-12 11:30N 38°32' W 028°38'0 0.0
2018-May-12 11:00N 38°32' W 028°38'  
2018-May-07 12:20N 38°32' W 028°38'0 0.0
2018-May-07 11:59N 38°32' W 028°38'0 0.0
2018-May-07 11:26N 38°32' W 028°38'0 0.0
2018-May-06 18:43N 38°32' W 028°38'0 0.0
2018-May-06 18:28N 38°32' W 028°38'0 0.0
2018-May-06 17:58N 38°32' W 028°38'0 0.6
2018-May-06 17:31N 38°32' W 028°37'2 4.4
2018-May-06 17:00N 38°31' W 028°35'2 4.7
2018-May-06 16:30N 38°29' W 028°33'3 5.5
2018-May-06 16:01N 38°27' W 028°31'3 5.2
2018-May-06 15:30N 38°25' W 028°28'3 5.6
2018-May-06 15:00N 38°24' W 028°25'2 4.4
2018-May-06 14:31N 38°23' W 028°23'2 3.2
2018-May-06 14:00N 38°22' W 028°21'2 4.9
2018-May-06 13:30N 38°22' W 028°18'3 5.3
2018-May-06 13:00N 38°21' W 028°15'  
Track history (hours):
 
Tides and Currents Weather Stations Pressure Air Temp Water Temp Dewpoint Dewpoint Depression Visibility Wind Speed Wind Dir Waves Ship Positions

Valkama

Last reported at 2018-May-16 12:54 UTC. Time now 2018-May-24 08:14 UTC.
Position N 38°31' W 027°50'.

Length 11 m.

Type: Sailing vessel. MMSI: 257868280.

Date/timePositionNaut miles runAvg speedWind from/ knotsBaromVisibWave heightAir tempDewpointWater temp
2018-May-16 12:54N 38°31' W 027°50'2 5.1
2018-May-16 12:30N 38°32' W 027°52'2 4.5
2018-May-16 12:00N 38°33' W 027°55'3 5.0
2018-May-16 11:30N 38°34' W 027°58'3 5.2
2018-May-16 11:00N 38°35' W 028°01'2 4.9
2018-May-16 10:30N 38°36' W 028°04'3 5.3
2018-May-16 10:00N 38°38' W 028°06'3 5.7
2018-May-16 09:30N 38°39' W 028°10'3 5.1
2018-May-16 08:59N 38°41' W 028°12'0 0.0
2018-May-15 18:34N 38°41' W 028°12'0 0.0
2018-May-15 17:10N 38°41' W 028°12'0 0.0
2018-May-14 19:27N 38°41' W 028°12'0 0.9
2018-May-14 19:00N 38°40' W 028°12'2 4.4
2018-May-14 18:30N 38°40' W 028°15'2 4.2
2018-May-14 18:00N 38°40' W 028°18'2 4.3
2018-May-14 17:30N 38°39' W 028°20'2 4.5
2018-May-14 17:00N 38°38' W 028°23'2 4.6
2018-May-14 16:30N 38°37' W 028°25'2 4.5
2018-May-14 16:00N 38°35' W 028°27'2 4.0
2018-May-14 15:29N 38°35' W 028°30'2 4.3
2018-May-14 15:00N 38°34' W 028°32'2 4.3
2018-May-14 14:30N 38°33' W 028°34'2 4.9
2018-May-14 14:00N 38°32' W 028°37'0 0.0
2018-May-12 15:00N 38°32' W 028°38'0 0.0
2018-May-12 14:30N 38°32' W 028°38'0 0.0
2018-May-12 13:57N 38°32' W 028°38'0 0.0
2018-May-12 13:26N 38°32' W 028°38'0 0.0
2018-May-12 12:59N 38°32' W 028°38'0 0.0
2018-May-12 12:29N 38°32' W 028°38'0 0.0
2018-May-12 11:59N 38°32' W 028°38'0 0.0
2018-May-12 11:30N 38°32' W 028°38'0 0.0
2018-May-12 11:00N 38°32' W 028°38'  
2018-May-07 12:20N 38°32' W 028°38'0 0.0
2018-May-07 11:59N 38°32' W 028°38'0 0.0
2018-May-07 11:26N 38°32' W 028°38'0 0.0
2018-May-06 18:43N 38°32' W 028°38'0 0.0
2018-May-06 18:28N 38°32' W 028°38'0 0.0
2018-May-06 17:58N 38°32' W 028°38'0 0.6
2018-May-06 17:31N 38°32' W 028°37'2 4.4
2018-May-06 17:00N 38°31' W 028°35'2 4.7
2018-May-06 16:30N 38°29' W 028°33'3 5.5
2018-May-06 16:01N 38°27' W 028°31'3 5.2
2018-May-06 15:30N 38°25' W 028°28'3 5.6
2018-May-06 15:00N 38°24' W 028°25'2 4.4
2018-May-06 14:31N 38°23' W 028°23'2 3.2
2018-May-06 14:00N 38°22' W 028°21'2 4.9
2018-May-06 13:30N 38°22' W 028°18'3 5.3
2018-May-06 13:00N 38°21' W 028°15'  

Dump ship's entire track history